Terminal Aerodrome Forecast
Issued by NWS Shreveport, LA

Home | Current Version | Previous Version | Text Only | Print | Product List | Glossary On
Versions: 1 2 3 4 5 6 7 8 9 10 11 12 13 14 15 16 17 18 19 20
000
FTUS44 KSHV 291157 AAA
TAFMLU
TAF AMD
KMLU 291157Z 2912/3012 VRB04KT P6SM BKN004
     FM291600 VRB05KT P6SM VCSH BKN025
     FM292000 28004KT P6SM VCTS OVC030CB
     FM300200 VRB03KT P6SM BKN050=

USA.gov is the U.S. government's official web portal to all federal, state and local government web resources and services.